Time;durP1;ratioP1;P1;durP2;ratioP2;P2;SDS_P1;SDS_P2;PMS_P1;PMS_P2;Temp;Humidity;BMP_temperature;BMP_pressure;BME280_temperature;BME280_humidity;BME280_pressure;Samples;Min_cycle;Max_cycle;Signal;HPM_P1;HPM_P2
2023/05/30 00:00:13;;;;;;;;;5.67;5.67;;;;;;;;6308561;22;45143;-72
2023/05/30 00:02:39;;;;;;;;;6.00;5.00;;;;;;;;6306648;22;47770;-72
2023/05/30 00:05:04;;;;;;;;;5.00;5.00;;;;;;;;6308207;22;45169;-72
2023/05/30 00:07:31;;;;;;;;;8.67;7.00;;;;;;;;6308757;22;45425;-72
2023/05/30 00:09:56;;;;;;;;;8.33;6.00;;;;;;;;6308536;22;45245;-72
2023/05/30 00:12:21;;;;;;;;;8.00;5.00;;;;;;;;6308544;22;45279;-72
2023/05/30 00:14:47;;;;;;;;;5.00;5.00;;;;;;;;6308353;22;45460;-72
2023/05/30 00:17:16;;;;;;;;;6.67;6.00;;;;;;;;6308475;22;45222;-72
2023/05/30 00:19:42;;;;;;;;;7.67;6.67;;;;;;;;6308328;22;45168;-71
2023/05/30 00:22:08;;;;;;;;;4.00;4.00;;;;;;;;6280167;22;45222;-72
2023/05/30 00:24:33;;;;;;;;;6.67;5.00;;;;;;;;6308548;22;45264;-71
2023/05/30 00:26:58;;;;;;;;;6.00;6.00;;;;;;;;6308523;22;45234;-72
2023/05/30 00:29:24;;;;;;;;;6.00;4.33;;;;;;;;6308698;22;45176;-72
2023/05/30 00:31:49;;;;;;;;;5.33;4.00;;;;;;;;6308147;22;45238;-72
2023/05/30 00:34:14;;;;;;;;;10.33;6.33;;;;;;;;6280714;22;45167;-72
2023/05/30 00:36:39;;;;;;;;;4.00;4.00;;;;;;;;6280500;22;45114;-72
2023/05/30 00:39:04;;;;;;;;;6.33;5.00;;;;;;;;6306045;22;47006;-71
2023/05/30 00:41:30;;;;;;;;;6.00;6.00;;;;;;;;6308147;22;45475;-72
2023/05/30 00:43:55;;;;;;;;;3.00;3.00;;;;;;;;6308762;22;45080;-72
2023/05/30 00:46:25;;;;;;;;;7.67;5.00;;;;;;;;6308637;22;45150;-71
2023/05/30 00:48:50;;;;;;;;;9.00;5.00;;;;;;;;6308494;22;45236;-72
2023/05/30 00:51:17;;;;;;;;;11.67;6.00;;;;;;;;6280207;22;48311;-71
2023/05/30 00:53:43;;;;;;;;;7.00;6.00;;;;;;;;6306381;22;45527;-72
2023/05/30 00:56:09;;;;;;;;;7.67;7.00;;;;;;;;6307293;22;45585;-72
2023/05/30 00:58:35;;;;;;;;;7.00;7.00;;;;;;;;6308673;22;45217;-72
2023/05/30 01:01:01;;;;;;;;;7.67;5.67;;;;;;;;6306452;22;46247;-72
2023/05/30 01:03:27;;;;;;;;;7.00;6.33;;;;;;;;6308501;22;45132;-72
2023/05/30 01:05:53;;;;;;;;;6.00;6.00;;;;;;;;6307776;22;45239;-72
2023/05/30 01:08:18;;;;;;;;;6.33;5.33;;;;;;;;6307642;22;45231;-72
2023/05/30 01:10:43;;;;;;;;;6.00;5.67;;;;;;;;6307555;22;46195;-72
2023/05/30 01:13:20;;;;;;;;;7.00;4.67;;;;;;;;6306036;22;45300;-72
2023/05/30 01:15:50;;;;;;;;;7.00;6.33;;;;;;;;6306652;22;45172;-73
2023/05/30 01:18:27;;;;;;;;;4.00;2.00;;;;;;;;6306872;22;45196;-73
2023/05/30 01:20:56;;;;;;;;;11.33;7.33;;;;;;;;6279618;22;46670;-73
2023/05/30 01:23:33;;;;;;;;;7.00;7.00;;;;;;;;6308494;22;45094;-72
2023/05/30 01:26:14;;;;;;;;;5.00;4.00;;;;;;;;6307905;22;45192;-73
2023/05/30 01:28:41;;;;;;;;;5.67;4.33;;;;;;;;6308218;22;45282;-73
2023/05/30 01:31:07;;;;;;;;;9.33;6.00;;;;;;;;6307996;22;45425;-72
2023/05/30 01:33:33;;;;;;;;;6.00;5.33;;;;;;;;6305962;22;46069;-72
2023/05/30 01:35:58;;;;;;;;;8.33;5.00;;;;;;;;6307987;22;45161;-73
2023/05/30 01:38:23;;;;;;;;;6.67;6.00;;;;;;;;6308386;22;45152;-73
2023/05/30 01:40:50;;;;;;;;;4.67;4.67;;;;;;;;6307716;22;45331;-72
2023/05/30 01:43:15;;;;;;;;;7.75;6.00;;;;;;;;6305865;22;45168;-72
2023/05/30 01:46:06;;;;;;;;;8.00;5.00;;;;;;;;6307784;22;45194;-72
2023/05/30 01:48:41;;;;;;;;;6.00;4.67;;;;;;;;6300204;22;45217;-72
2023/05/30 01:51:10;;;;;;;;;5.33;4.33;;;;;;;;6307983;22;45124;-72
2023/05/30 01:53:38;;;;;;;;;6.75;5.25;;;;;;;;6308101;22;45288;-72
2023/05/30 01:56:06;;;;;;;;;9.67;6.67;;;;;;;;6307022;22;45490;-72
2023/05/30 01:58:32;;;;;;;;;5.33;5.33;;;;;;;;6307949;22;45296;-72
2023/05/30 02:00:58;;;;;;;;;9.00;6.33;;;;;;;;6304455;22;45432;-71
2023/05/30 02:03:23;;;;;;;;;5.00;5.00;;;;;;;;6308018;22;45126;-71
2023/05/30 02:05:49;;;;;;;;;5.67;5.67;;;;;;;;6307769;22;45169;-71
2023/05/30 02:08:14;;;;;;;;;8.50;6.00;;;;;;;;6307463;22;45129;-71
2023/05/30 02:10:39;;;;;;;;;7.00;7.00;;;;;;;;6307226;22;46056;-71
2023/05/30 02:13:04;;;;;;;;;6.50;5.00;;;;;;;;6304077;22;45241;-71
2023/05/30 02:15:30;;;;;;;;;6.25;3.50;;;;;;;;6305479;22;45231;-71
2023/05/30 02:17:55;;;;;;;;;9.50;5.25;;;;;;;;6308751;22;45261;-72
2023/05/30 02:20:20;;;;;;;;;4.75;3.00;;;;;;;;6280607;22;46860;-71
2023/05/30 02:22:45;;;;;;;;;7.75;5.75;;;;;;;;6307164;22;45168;-71
2023/05/30 02:25:10;;;;;;;;;12.25;7.00;;;;;;;;6306067;22;45414;-71
2023/05/30 02:27:36;;;;;;;;;8.75;5.50;;;;;;;;6309030;22;45411;-72
2023/05/30 02:30:01;;;;;;;;;9.75;7.00;;;;;;;;6308500;22;46082;-71
2023/05/30 02:32:26;;;;;;;;;6.25;5.00;;;;;;;;6309380;22;45214;-71
2023/05/30 02:34:51;;;;;;;;;9.00;6.00;;;;;;;;6309240;22;45314;-71
2023/05/30 02:37:17;;;;;;;;;7.50;6.00;;;;;;;;6308702;22;45284;-71
2023/05/30 02:39:42;;;;;;;;;11.00;6.75;;;;;;;;6308664;22;45314;-72
2023/05/30 02:42:07;;;;;;;;;8.75;7.00;;;;;;;;6308995;22;45143;-71
2023/05/30 02:44:32;;;;;;;;;7.50;5.00;;;;;;;;6309537;22;45220;-71
2023/05/30 02:46:59;;;;;;;;;5.50;4.25;;;;;;;;6309371;22;45229;-71
2023/05/30 02:49:25;;;;;;;;;8.50;5.25;;;;;;;;6309247;22;45323;-71
2023/05/30 02:51:50;;;;;;;;;9.50;5.00;;;;;;;;6307413;22;44664;-72
2023/05/30 02:54:15;;;;;;;;;4.25;4.25;;;;;;;;6309180;22;45176;-72
2023/05/30 02:56:40;;;;;;;;;9.00;7.25;;;;;;;;6308130;22;45251;-72
2023/05/30 02:59:06;;;;;;;;;12.25;6.00;;;;;;;;6307038;22;47409;-71
2023/05/30 03:01:31;;;;;;;;;2.25;2.00;;;;;;;;6308793;22;45197;-71
2023/05/30 03:03:56;;;;;;;;;5.25;4.00;;;;;;;;6309298;22;45412;-71
2023/05/30 03:06:21;;;;;;;;;4.75;4.00;;;;;;;;6306399;22;46883;-71
2023/05/30 03:08:56;;;;;;;;;5.50;4.75;;;;;;;;6280606;22;46433;-71
2023/05/30 03:11:21;;;;;;;;;5.00;5.00;;;;;;;;6306326;22;45200;-72
2023/05/30 03:13:47;;;;;;;;;7.00;6.00;;;;;;;;6309160;22;45093;-72
2023/05/30 03:16:12;;;;;;;;;4.50;4.25;;;;;;;;6308718;22;45292;-72
2023/05/30 03:18:37;;;;;;;;;1.25;1.25;;;;;;;;6308998;22;45937;-71
2023/05/30 03:21:02;;;;;;;;;10.00;5.25;;;;;;;;6309065;22;45532;-71
2023/05/30 03:23:28;;;;;;;;;8.50;5.25;;;;;;;;6306097;22;45193;-71
2023/05/30 03:25:53;;;;;;;;;6.50;4.75;;;;;;;;6308006;22;45203;-71
2023/05/30 03:28:18;;;;;;;;;7.25;5.50;;;;;;;;6305905;22;46810;-71
2023/05/30 03:30:43;;;;;;;;;6.00;6.00;;;;;;;;6308825;22;45129;-71
2023/05/30 03:33:08;;;;;;;;;7.50;6.00;;;;;;;;6309280;22;45069;-71
2023/05/30 03:35:34;;;;;;;;;7.50;5.75;;;;;;;;6308590;22;45375;-71
2023/05/30 03:37:59;;;;;;;;;9.75;6.00;;;;;;;;6308724;22;46116;-71
2023/05/30 03:40:24;;;;;;;;;6.75;5.75;;;;;;;;6308327;22;45199;-71
2023/05/30 03:42:50;;;;;;;;;10.25;6.25;;;;;;;;6308764;22;45185;-73
2023/05/30 03:45:15;;;;;;;;;6.75;5.25;;;;;;;;6308447;22;45252;-72
2023/05/30 03:47:40;;;;;;;;;6.00;5.00;;;;;;;;6308761;22;45292;-72
2023/05/30 03:50:05;;;;;;;;;5.00;5.00;;;;;;;;6308908;22;45265;-72
2023/05/30 03:52:30;;;;;;;;;4.00;4.00;;;;;;;;6309298;22;45158;-72
2023/05/30 03:54:56;;;;;;;;;5.50;4.00;;;;;;;;6308266;22;45411;-72
2023/05/30 03:57:22;;;;;;;;;7.00;5.50;;;;;;;;6307311;22;46239;-72
2023/05/30 03:59:47;;;;;;;;;6.00;6.00;;;;;;;;6305640;22;45282;-72
2023/05/30 04:02:13;;;;;;;;;4.75;4.75;;;;;;;;6307929;22;45726;-72
2023/05/30 04:04:38;;;;;;;;;7.25;5.25;;;;;;;;6308799;22;45456;-73
2023/05/30 04:07:03;;;;;;;;;7.50;4.50;;;;;;;;6308283;22;46008;-73
2023/05/30 04:09:29;;;;;;;;;4.00;3.50;;;;;;;;6308691;22;45222;-72
2023/05/30 04:11:54;;;;;;;;;6.75;4.25;;;;;;;;6308499;22;45237;-72
2023/05/30 04:14:19;;;;;;;;;6.75;5.00;;;;;;;;6305847;22;45750;-72
2023/05/30 04:16:44;;;;;;;;;4.25;4.25;;;;;;;;6308389;22;45983;-72
2023/05/30 04:19:10;;;;;;;;;7.00;6.50;;;;;;;;6308740;22;45234;-73
2023/05/30 04:21:35;;;;;;;;;6.25;4.00;;;;;;;;6308851;22;45212;-72
2023/05/30 04:24:01;;;;;;;;;9.25;5.00;;;;;;;;6308337;22;45204;-72
2023/05/30 04:26:26;;;;;;;;;6.25;5.00;;;;;;;;6304333;22;46866;-72
2023/05/30 04:28:54;;;;;;;;;5.00;4.25;;;;;;;;6308880;22;45243;-72
2023/05/30 04:31:19;;;;;;;;;8.25;4.25;;;;;;;;6308664;22;45254;-72
2023/05/30 04:33:48;;;;;;;;;8.00;5.00;;;;;;;;6280452;22;45366;-72
2023/05/30 04:36:18;;;;;;;;;4.50;3.75;;;;;;;;6308245;22;45558;-72
2023/05/30 04:38:44;;;;;;;;;4.25;4.00;;;;;;;;6307941;22;45228;-71
2023/05/30 04:41:10;;;;;;;;;6.50;4.00;;;;;;;;6305223;22;45272;-71
2023/05/30 04:43:35;;;;;;;;;6.75;5.00;;;;;;;;6308386;22;45417;-71
2023/05/30 04:46:00;;;;;;;;;7.00;6.00;;;;;;;;6307881;22;45153;-74
2023/05/30 04:48:29;;;;;;;;;3.00;3.00;;;;;;;;6280092;22;45216;-72
2023/05/30 04:50:54;;;;;;;;;5.25;5.00;;;;;;;;6308059;22;45348;-71
2023/05/30 04:53:20;;;;;;;;;5.00;5.00;;;;;;;;6308386;22;45248;-72
2023/05/30 04:55:45;;;;;;;;;6.00;4.50;;;;;;;;6299896;22;45280;-72
2023/05/30 04:58:11;;;;;;;;;5.50;4.00;;;;;;;;6300533;22;45232;-72
2023/05/30 05:00:37;;;;;;;;;5.00;3.75;;;;;;;;6274868;22;45160;-72
2023/05/30 05:03:03;;;;;;;;;3.00;3.00;;;;;;;;6276985;22;45212;-72
2023/05/30 05:05:28;;;;;;;;;3.00;3.00;;;;;;;;6274141;22;46850;-72
2023/05/30 05:07:53;;;;;;;;;5.75;5.00;;;;;;;;6277314;22;45230;-73
2023/05/30 05:10:18;;;;;;;;;7.00;4.25;;;;;;;;6276603;22;45206;-72
2023/05/30 05:12:44;;;;;;;;;7.50;4.00;;;;;;;;6275358;22;45421;-72
2023/05/30 05:15:09;;;;;;;;;6.50;4.25;;;;;;;;6276358;22;45200;-74
2023/05/30 05:17:36;;;;;;;;;4.75;3.25;;;;;;;;6274845;22;45136;-74
2023/05/30 05:20:05;;;;;;;;;4.00;4.00;;;;;;;;6276904;22;45128;-74
2023/05/30 05:22:30;;;;;;;;;6.25;4.00;;;;;;;;6299733;22;45706;-73
2023/05/30 05:24:55;;;;;;;;;4.25;4.00;;;;;;;;6276053;22;45438;-72
2023/05/30 05:27:21;;;;;;;;;7.50;4.75;;;;;;;;6276750;22;45355;-71
2023/05/30 05:29:46;;;;;;;;;7.25;4.00;;;;;;;;6274286;22;45324;-71
2023/05/30 05:32:11;;;;;;;;;7.50;6.00;;;;;;;;6277067;22;45203;-71
2023/05/30 05:34:37;;;;;;;;;6.00;4.00;;;;;;;;6277023;22;45989;-72
2023/05/30 05:37:02;;;;;;;;;7.00;5.00;;;;;;;;6274297;22;45298;-72
2023/05/30 05:39:27;;;;;;;;;3.00;0.00;;;;;;;;6276837;22;45396;-72
2023/05/30 05:41:53;;;;;;;;;8.00;5.00;;;;;;;;6276306;22;45423;-72
2023/05/30 05:44:18;;;;;;;;;5.50;3.25;;;;;;;;6276965;22;45160;-72
2023/05/30 05:46:44;;;;;;;;;4.00;3.25;;;;;;;;6276648;22;45354;-73
2023/05/30 05:49:09;;;;;;;;;5.00;4.75;;;;;;;;6276540;22;45179;-72
2023/05/30 05:51:35;;;;;;;;;5.00;4.00;;;;;;;;6274540;22;45889;-72
2023/05/30 05:54:00;;;;;;;;;4.50;3.50;;;;;;;;6277099;22;45198;-71
2023/05/30 05:56:26;;;;;;;;;4.00;4.00;;;;;;;;6290557;22;45326;-71
2023/05/30 05:58:51;;;;;;;;;4.25;3.00;;;;;;;;6308381;22;45355;-71
2023/05/30 06:01:16;;;;;;;;;7.50;4.00;;;;;;;;6305378;22;46358;-71
2023/05/30 06:03:42;;;;;;;;;6.25;4.25;;;;;;;;6307792;22;46251;-72
2023/05/30 06:06:07;;;;;;;;;5.50;5.00;;;;;;;;6307777;22;45203;-72
2023/05/30 06:08:33;;;;;;;;;5.00;5.00;;;;;;;;6308424;22;45263;-71
2023/05/30 06:10:58;;;;;;;;;6.50;5.00;;;;;;;;6307383;22;45605;-71
2023/05/30 06:13:24;;;;;;;;;6.50;5.25;;;;;;;;6306186;22;47046;-71
2023/05/30 06:15:49;;;;;;;;;6.25;3.00;;;;;;;;6307432;22;45250;-71
2023/05/30 06:18:15;;;;;;;;;6.00;5.00;;;;;;;;6308054;22;45200;-71
2023/05/30 06:20:40;;;;;;;;;7.00;4.25;;;;;;;;6307681;22;45610;-71
2023/05/30 06:23:05;;;;;;;;;7.25;4.50;;;;;;;;6307547;22;45254;-71
2023/05/30 06:25:31;;;;;;;;;6.00;4.00;;;;;;;;6307280;22;45298;-71
2023/05/30 06:27:56;;;;;;;;;4.00;3.75;;;;;;;;6307887;22;45284;-71
2023/05/30 06:30:21;;;;;;;;;6.25;5.25;;;;;;;;6307237;22;45113;-71
2023/05/30 06:32:46;;;;;;;;;5.50;4.00;;;;;;;;6307296;22;45496;-71
2023/05/30 06:35:11;;;;;;;;;6.33;5.00;;;;;;;;6307684;22;45282;-71
2023/05/30 06:37:36;;;;;;;;;3.67;3.00;;;;;;;;6308049;22;45161;-72
2023/05/30 06:40:02;;;;;;;;;11.25;3.75;;;;;;;;6307205;22;45180;-71
2023/05/30 06:42:27;;;;;;;;;6.00;5.00;;;;;;;;6307196;22;45850;-71
2023/05/30 06:44:53;;;;;;;;;7.00;5.00;;;;;;;;6307445;22;45121;-71
2023/05/30 06:47:18;;;;;;;;;8.67;4.33;;;;;;;;6307529;22;45183;-71
2023/05/30 06:49:43;;;;;;;;;3.33;3.00;;;;;;;;6304648;22;45239;-71
2023/05/30 06:52:08;;;;;;;;;7.67;4.67;;;;;;;;6307131;22;46244;-71
2023/05/30 06:54:34;;;;;;;;;9.67;4.00;;;;;;;;6307132;22;45090;-71
2023/05/30 06:57:05;;;;;;;;;5.00;3.33;;;;;;;;6299336;22;45392;-71
2023/05/30 06:59:33;;;;;;;;;5.00;3.00;;;;;;;;6276798;22;45283;-71
2023/05/30 07:01:58;;;;;;;;;6.67;6.00;;;;;;;;6299277;22;48265;-71
2023/05/30 07:04:24;;;;;;;;;5.00;4.00;;;;;;;;6277314;22;45281;-71
2023/05/30 07:06:49;;;;;;;;;6.67;5.00;;;;;;;;6298972;22;45425;-72
2023/05/30 07:09:15;;;;;;;;;7.67;5.67;;;;;;;;6277302;22;45199;-70
2023/05/30 07:11:40;;;;;;;;;5.00;3.00;;;;;;;;6274832;22;45847;-71
2023/05/30 07:14:05;;;;;;;;;9.67;3.33;;;;;;;;6277616;22;45150;-70
2023/05/30 07:16:31;;;;;;;;;8.00;5.67;;;;;;;;6277783;22;45251;-70
2023/05/30 07:18:56;;;;;;;;;5.00;4.33;;;;;;;;6277685;22;45313;-70
2023/05/30 07:21:21;;;;;;;;;7.67;4.67;;;;;;;;6301030;22;48313;-71
2023/05/30 07:23:46;;;;;;;;;7.67;4.00;;;;;;;;6276764;22;45384;-71
2023/05/30 07:26:12;;;;;;;;;6.33;4.00;;;;;;;;6276843;22;45630;-70
2023/05/30 07:28:37;;;;;;;;;3.00;3.00;;;;;;;;6277553;22;45297;-73
2023/05/30 07:31:02;;;;;;;;;5.00;5.00;;;;;;;;6275171;22;46089;-72
2023/05/30 07:33:27;;;;;;;;;6.67;4.00;;;;;;;;6277395;22;45163;-72
2023/05/30 07:35:52;;;;;;;;;6.33;5.33;;;;;;;;6277226;22;45168;-72
2023/05/30 07:38:18;;;;;;;;;7.67;5.33;;;;;;;;6277491;22;45231;-73
2023/05/30 07:40:43;;;;;;;;;4.00;3.67;;;;;;;;6276849;22;45274;-73
2023/05/30 07:43:08;;;;;;;;;4.67;3.67;;;;;;;;6301824;22;45297;-72
2023/05/30 07:45:33;;;;;;;;;9.33;4.67;;;;;;;;6277457;22;45236;-73
2023/05/30 07:47:58;;;;;;;;;6.67;5.33;;;;;;;;6277855;22;45227;-73
2023/05/30 07:50:24;;;;;;;;;6.00;5.00;;;;;;;;6277486;22;45380;-72
2023/05/30 07:52:49;;;;;;;;;6.33;4.67;;;;;;;;6277912;22;45269;-72
2023/05/30 07:55:14;;;;;;;;;4.00;4.00;;;;;;;;6277243;22;45243;-72
2023/05/30 07:57:40;;;;;;;;;6.00;4.67;;;;;;;;6307443;22;45229;-72
2023/05/30 08:00:08;;;;;;;;;5.67;5.00;;;;;;;;6306464;22;46168;-73
2023/05/30 08:02:33;;;;;;;;;8.33;5.33;;;;;;;;6309076;22;45169;-73
2023/05/30 08:04:58;;;;;;;;;6.67;4.00;;;;;;;;6308856;22;45098;-72
2023/05/30 08:07:24;;;;;;;;;5.00;4.00;;;;;;;;6280375;22;45486;-73
2023/05/30 08:09:49;;;;;;;;;5.33;3.67;;;;;;;;6280085;22;47201;-73
2023/05/30 08:12:19;;;;;;;;;6.00;3.00;;;;;;;;6308370;22;45188;-73
2023/05/30 08:14:45;;;;;;;;;7.00;5.00;;;;;;;;6306750;22;45229;-73
2023/05/30 08:17:11;;;;;;;;;6.33;4.67;;;;;;;;6308278;22;45146;-72
2023/05/30 08:19:36;;;;;;;;;6.00;5.00;;;;;;;;6308620;22;45310;-73
2023/05/30 08:22:03;;;;;;;;;2.00;2.00;;;;;;;;6308545;22;45160;-74
2023/05/30 08:24:28;;;;;;;;;6.33;5.00;;;;;;;;6308744;22;45126;-73
2023/05/30 08:26:53;;;;;;;;;4.00;3.67;;;;;;;;6279765;22;45193;-74
2023/05/30 08:29:19;;;;;;;;;3.33;3.00;;;;;;;;6308573;22;46030;-73
2023/05/30 08:31:45;;;;;;;;;4.67;4.67;;;;;;;;6308285;22;45323;-73
2023/05/30 08:34:10;;;;;;;;;7.00;3.67;;;;;;;;6308615;22;45242;-73
2023/05/30 08:36:35;;;;;;;;;4.33;4.33;;;;;;;;6308262;22;45213;-73
2023/05/30 08:39:01;;;;;;;;;5.00;5.00;;;;;;;;6308497;22;45408;-73
2023/05/30 08:41:26;;;;;;;;;4.00;4.00;;;;;;;;6308253;22;45239;-73
2023/05/30 08:43:51;;;;;;;;;5.00;4.00;;;;;;;;6308029;22;45153;-73
2023/05/30 08:46:18;;;;;;;;;3.33;3.33;;;;;;;;6307856;22;45339;-74
2023/05/30 08:48:44;;;;;;;;;5.00;4.00;;;;;;;;6308375;22;46067;-73
2023/05/30 08:51:12;;;;;;;;;9.00;4.67;;;;;;;;6307829;22;45206;-73
2023/05/30 08:53:41;;;;;;;;;3.67;3.67;;;;;;;;6308207;22;45172;-73
2023/05/30 08:56:10;;;;;;;;;5.67;3.00;;;;;;;;6306325;22;45149;-72
2023/05/30 08:58:46;;;;;;;;;5.33;3.00;;;;;;;;6308192;22;45982;-72
2023/05/30 09:01:12;;;;;;;;;3.75;3.75;;;;;;;;6308180;22;45250;-72
2023/05/30 09:03:38;;;;;;;;;4.00;4.00;;;;;;;;6305826;22;45129;-73
2023/05/30 09:06:04;;;;;;;;;7.50;3.00;;;;;;;;6279210;22;46958;-73
2023/05/30 09:08:30;;;;;;;;;3.75;3.00;;;;;;;;6279765;22;47461;-73
2023/05/30 09:10:58;;;;;;;;;5.00;4.00;;;;;;;;6279236;22;45188;-72
2023/05/30 09:13:23;;;;;;;;;4.00;3.00;;;;;;;;6308609;22;45265;-72
2023/05/30 09:15:48;;;;;;;;;6.00;4.25;;;;;;;;6306624;22;45240;-72
2023/05/30 09:18:16;;;;;;;;;9.00;4.00;;;;;;;;6280158;22;47368;-75
2023/05/30 09:20:41;;;;;;;;;4.50;3.50;;;;;;;;6307921;22;45240;-74
2023/05/30 09:23:06;;;;;;;;;6.75;3.75;;;;;;;;6308424;22;45194;-74
2023/05/30 09:25:42;;;;;;;;;5.00;4.75;;;;;;;;6307079;22;45419;-72
2023/05/30 09:28:07;;;;;;;;;5.00;4.00;;;;;;;;6307652;22;45987;-72
2023/05/30 09:30:32;;;;;;;;;4.50;3.25;;;;;;;;6307862;22;44627;-74
2023/05/30 09:33:01;;;;;;;;;4.50;3.50;;;;;;;;6308070;22;45168;-74
2023/05/30 09:35:27;;;;;;;;;4.25;3.25;;;;;;;;6279697;22;45466;-74
2023/05/30 09:37:52;;;;;;;;;4.75;4.75;;;;;;;;6307974;22;45282;-73
2023/05/30 09:40:17;;;;;;;;;4.50;4.00;;;;;;;;6307544;22;45263;-74
2023/05/30 09:42:44;;;;;;;;;4.00;4.00;;;;;;;;6305988;22;45220;-74
2023/05/30 09:45:10;;;;;;;;;5.75;3.50;;;;;;;;6307693;22;45286;-75
2023/05/30 09:47:39;;;;;;;;;4.25;3.00;;;;;;;;6306630;22;45337;-76
2023/05/30 09:50:06;;;;;;;;;2.25;2.00;;;;;;;;6307826;22;45178;-74
2023/05/30 09:52:31;;;;;;;;;5.75;3.25;;;;;;;;6306641;22;45270;-73
2023/05/30 09:54:57;;;;;;;;;5.75;3.25;;;;;;;;6307519;22;45198;-74
2023/05/30 09:57:24;;;;;;;;;5.00;3.25;;;;;;;;6307206;22;45281;-74
2023/05/30 09:59:49;;;;;;;;;6.00;4.00;;;;;;;;6307741;22;45188;-74
2023/05/30 10:02:20;;;;;;;;;4.25;4.25;;;;;;;;6308060;22;45333;-74
2023/05/30 10:04:47;;;;;;;;;7.00;6.75;;;;;;;;6308049;22;45190;-75
2023/05/30 10:07:14;;;;;;;;;4.75;3.00;;;;;;;;6307481;22;45296;-75
2023/05/30 10:09:40;;;;;;;;;0.00;0.00;;;;;;;;6306207;22;45269;-77
2023/05/30 10:12:06;;;;;;;;;4.00;4.00;;;;;;;;6307573;22;45239;-75
2023/05/30 10:14:31;;;;;;;;;8.00;3.00;;;;;;;;6306479;22;45179;-74
2023/05/30 10:17:02;;;;;;;;;2.50;2.50;;;;;;;;6304261;22;47689;-75
2023/05/30 10:19:37;;;;;;;;;5.00;3.20;;;;;;;;6279195;22;45279;-75
2023/05/30 10:22:06;;;;;;;;;5.00;3.25;;;;;;;;6307784;22;45138;-74
2023/05/30 10:24:31;;;;;;;;;5.25;4.50;;;;;;;;6307571;22;45304;-74
2023/05/30 10:26:59;;;;;;;;;4.00;4.00;;;;;;;;6307045;22;45200;-74
2023/05/30 10:29:28;;;;;;;;;3.60;3.40;;;;;;;;6307964;22;45211;-74
2023/05/30 10:31:54;;;;;;;;;3.25;3.25;;;;;;;;6307218;22;45294;-75
2023/05/30 10:34:20;;;;;;;;;5.50;2.75;;;;;;;;6307546;22;45233;-73
2023/05/30 10:36:47;;;;;;;;;4.60;3.00;;;;;;;;6306544;22;46564;-74
2023/05/30 10:39:21;;;;;;;;;2.80;2.80;;;;;;;;6308029;22;45110;-75
2023/05/30 10:41:55;;;;;;;;;3.25;3.00;;;;;;;;6308828;22;45401;-75
2023/05/30 10:44:32;;;;;;;;;1.50;1.50;;;;;;;;6309201;22;45442;-74
2023/05/30 10:47:07;;;;;;;;;5.50;4.25;;;;;;;;6306120;22;47093;-74
2023/05/30 10:49:32;;;;;;;;;4.25;4.25;;;;;;;;6309136;22;45252;-74
2023/05/30 10:51:58;;;;;;;;;4.75;4.00;;;;;;;;6309008;22;45211;-74
2023/05/30 10:54:24;;;;;;;;;6.25;5.00;;;;;;;;6308748;22;45406;-74
2023/05/30 10:56:50;;;;;;;;;6.75;4.75;;;;;;;;6308327;22;45227;-74
2023/05/30 10:59:17;;;;;;;;;4.25;2.00;;;;;;;;6309020;22;45257;-74
2023/05/30 11:02:01;;;;;;;;;4.25;2.00;;;;;;;;6306979;22;45400;-74
2023/05/30 11:04:30;;;;;;;;;2.00;2.00;;;;;;;;6308950;22;45613;-74
2023/05/30 11:06:56;;;;;;;;;2.00;2.00;;;;;;;;6306358;22;47054;-74
2023/05/30 11:09:21;;;;;;;;;5.00;4.25;;;;;;;;6308684;22;45173;-74
2023/05/30 11:11:53;;;;;;;;;4.50;3.00;;;;;;;;6308669;22;45287;-74
2023/05/30 11:14:23;;;;;;;;;3.25;2.00;;;;;;;;6308957;22;45231;-77
2023/05/30 11:16:56;;;;;;;;;4.00;4.00;;;;;;;;6308554;22;45219;-75
2023/05/30 11:19:25;;;;;;;;;6.20;2.40;;;;;;;;6306771;22;45310;-76
2023/05/30 11:21:56;;;;;;;;;5.40;2.00;;;;;;;;6308715;22;45251;-75
2023/05/30 11:24:22;;;;;;;;;1.75;1.50;;;;;;;;6308185;22;45690;-75
2023/05/30 11:26:54;;;;;;;;;2.50;2.00;;;;;;;;6305727;22;47713;-75
2023/05/30 11:29:28;;;;;;;;;7.80;2.80;;;;;;;;6309001;22;45265;-75
2023/05/30 11:31:53;;;;;;;;;3.40;3.00;;;;;;;;6308776;22;45347;-75
2023/05/30 11:34:19;;;;;;;;;3.25;2.50;;;;;;;;6309178;22;45320;-74
2023/05/30 11:36:46;;;;;;;;;4.00;3.00;;;;;;;;6308351;22;46062;-75
2023/05/30 11:39:11;;;;;;;;;3.20;3.20;;;;;;;;6308844;22;45223;-73
2023/05/30 11:41:37;;;;;;;;;5.50;3.00;;;;;;;;6306625;22;45288;-75
2023/05/30 11:44:03;;;;;;;;;3.00;3.00;;;;;;;;6309244;22;45341;-75
2023/05/30 11:46:28;;;;;;;;;0.40;0.00;;;;;;;;6308974;22;45369;-75
2023/05/30 11:48:57;;;;;;;;;4.00;3.00;;;;;;;;6308807;22;45166;-75
2023/05/30 11:51:22;;;;;;;;;3.20;3.20;;;;;;;;6307311;22;45264;-72
2023/05/30 11:53:48;;;;;;;;;3.00;2.50;;;;;;;;6308649;22;45256;-75
2023/05/30 11:56:14;;;;;;;;;4.00;3.75;;;;;;;;6308061;22;45457;-75
2023/05/30 11:58:39;;;;;;;;;4.25;2.50;;;;;;;;6308850;22;45283;-75
2023/05/30 12:01:05;;;;;;;;;3.00;2.00;;;;;;;;6280379;22;45593;-76
2023/05/30 12:03:31;;;;;;;;;2.25;2.25;;;;;;;;6308476;22;45219;-74
2023/05/30 12:05:57;;;;;;;;;3.00;3.00;;;;;;;;6306856;22;45390;-75
2023/05/30 12:08:23;;;;;;;;;4.00;3.00;;;;;;;;6308589;22;45296;-75
2023/05/30 12:10:51;;;;;;;;;3.00;3.00;;;;;;;;6308714;22;45297;-74
2023/05/30 12:13:18;;;;;;;;;2.80;2.00;;;;;;;;6308889;22;45204;-75
2023/05/30 12:15:43;;;;;;;;;3.00;2.80;;;;;;;;6308317;22;45340;-75
2023/05/30 12:18:10;;;;;;;;;2.00;2.00;;;;;;;;6308629;22;45262;-76
2023/05/30 12:20:42;;;;;;;;;5.00;4.00;;;;;;;;6308602;22;45276;-74
2023/05/30 12:23:08;;;;;;;;;4.00;4.00;;;;;;;;6308681;22;45164;-75
2023/05/30 12:25:33;;;;;;;;;5.20;3.20;;;;;;;;6306627;22;46697;-75
2023/05/30 12:27:59;;;;;;;;;2.50;2.00;;;;;;;;6308123;22;45326;-75
2023/05/30 12:30:29;;;;;;;;;2.25;2.25;;;;;;;;6308773;22;45306;-75
2023/05/30 12:32:56;;;;;;;;;2.50;2.50;;;;;;;;6308089;22;45452;-74
2023/05/30 12:35:24;;;;;;;;;4.60;3.20;;;;;;;;6307440;22;45328;-74
2023/05/30 12:37:56;;;;;;;;;5.20;3.80;;;;;;;;6308706;22;45220;-74
2023/05/30 12:40:24;;;;;;;;;3.25;3.25;;;;;;;;6280119;22;45173;-74
2023/05/30 12:42:50;;;;;;;;;5.25;3.25;;;;;;;;6305811;22;45445;-74
2023/05/30 12:45:15;;;;;;;;;2.50;2.50;;;;;;;;6305400;22;47852;-74
2023/05/30 12:47:40;;;;;;;;;4.25;3.25;;;;;;;;6306539;22;45185;-74
2023/05/30 12:50:06;;;;;;;;;6.00;5.25;;;;;;;;6308781;22;45445;-75
2023/05/30 12:52:31;;;;;;;;;4.00;2.00;;;;;;;;6307209;22;45227;-75
2023/05/30 12:54:57;;;;;;;;;5.75;3.75;;;;;;;;6305281;22;47130;-74
2023/05/30 12:57:25;;;;;;;;;4.50;3.50;;;;;;;;6307733;22;45313;-74
2023/05/30 12:59:52;;;;;;;;;6.20;3.60;;;;;;;;6308653;22;45156;-74
2023/05/30 13:02:20;;;;;;;;;4.25;4.25;;;;;;;;6306280;22;45531;-74
2023/05/30 13:04:45;;;;;;;;;3.80;2.80;;;;;;;;6308632;22;45315;-74
2023/05/30 13:07:11;;;;;;;;;6.50;3.50;;;;;;;;6308275;22;45390;-74
2023/05/30 13:09:37;;;;;;;;;4.60;3.80;;;;;;;;6307475;22;45224;-75
2023/05/30 13:12:04;;;;;;;;;3.40;3.40;;;;;;;;6307930;22;45319;-74
2023/05/30 13:14:30;;;;;;;;;3.40;3.40;;;;;;;;6308488;22;45937;-74
2023/05/30 13:16:56;;;;;;;;;3.00;2.00;;;;;;;;6306289;22;45127;-75
2023/05/30 13:19:21;;;;;;;;;5.75;5.25;;;;;;;;6308673;22;45114;-75
2023/05/30 13:21:47;;;;;;;;;6.25;4.25;;;;;;;;6307671;22;45228;-74
2023/05/30 13:24:12;;;;;;;;;8.00;3.50;;;;;;;;6307939;22;45270;-74
2023/05/30 13:26:37;;;;;;;;;2.50;2.00;;;;;;;;6307948;22;45169;-74
2023/05/30 13:29:04;;;;;;;;;3.00;2.75;;;;;;;;6308376;22;45495;-74
2023/05/30 13:31:29;;;;;;;;;2.20;2.20;;;;;;;;6307333;22;45321;-74
2023/05/30 13:33:56;;;;;;;;;1.75;1.75;;;;;;;;6308060;22;46060;-74
2023/05/30 13:36:24;;;;;;;;;4.80;2.80;;;;;;;;6307586;22;45527;-74
2023/05/30 13:38:49;;;;;;;;;2.60;1.60;;;;;;;;6308279;22;45164;-74
2023/05/30 13:41:14;;;;;;;;;2.50;1.00;;;;;;;;6307439;22;45217;-75
2023/05/30 13:43:39;;;;;;;;;5.25;4.00;;;;;;;;6308407;22;45395;-74
2023/05/30 13:46:05;;;;;;;;;3.50;2.25;;;;;;;;6307339;22;45192;-73
2023/05/30 13:48:30;;;;;;;;;4.00;4.00;;;;;;;;6280108;22;45169;-74
2023/05/30 13:50:55;;;;;;;;;6.50;4.25;;;;;;;;6306828;22;45425;-74
2023/05/30 13:53:20;;;;;;;;;4.00;4.00;;;;;;;;6307694;22;46195;-74
2023/05/30 13:55:46;;;;;;;;;5.75;2.00;;;;;;;;6307089;22;45194;-75
2023/05/30 13:58:12;;;;;;;;;4.00;2.60;;;;;;;;6307624;22;45309;-74
2023/05/30 14:00:37;;;;;;;;;3.25;2.75;;;;;;;;6307799;22;45490;-74
2023/05/30 14:03:03;;;;;;;;;3.25;3.25;;;;;;;;6308169;22;45341;-74
2023/05/30 14:05:29;;;;;;;;;4.00;2.40;;;;;;;;6305657;22;45228;-74
2023/05/30 14:07:54;;;;;;;;;2.00;2.00;;;;;;;;6308227;22;45266;-74
2023/05/30 14:10:20;;;;;;;;;2.50;2.00;;;;;;;;6307398;22;45221;-73
2023/05/30 14:12:45;;;;;;;;;2.00;1.75;;;;;;;;6308253;22;46005;-74
2023/05/30 14:15:15;;;;;;;;;3.00;1.75;;;;;;;;6307179;22;45254;-74
2023/05/30 14:17:40;;;;;;;;;2.20;2.20;;;;;;;;6307966;22;45252;-74
2023/05/30 14:20:06;;;;;;;;;2.75;2.50;;;;;;;;6307915;22;45186;-75
2023/05/30 14:22:32;;;;;;;;;6.75;4.25;;;;;;;;6308011;22;45192;-74
2023/05/30 14:24:57;;;;;;;;;5.00;5.00;;;;;;;;6307651;22;45180;-73
2023/05/30 14:27:22;;;;;;;;;8.75;4.75;;;;;;;;6308251;22;45153;-74
2023/05/30 14:29:47;;;;;;;;;4.00;3.25;;;;;;;;6307989;22;45125;-74
2023/05/30 14:32:12;;;;;;;;;6.50;3.00;;;;;;;;6279174;22;47992;-74
2023/05/30 14:34:38;;;;;;;;;3.75;3.00;;;;;;;;6279883;22;45543;-75
2023/05/30 14:37:03;;;;;;;;;2.50;2.50;;;;;;;;6307874;22;45303;-73